Brownsburg, Canada
Current Conditions -  °F | °C
As of 5:00 PM on Saturday 20 Dec 2014 (Local Time) from CYMX Reporting Station
Few Clouds Few Clouds  
Wind Chill: 12°   Ceiling: Unl
Heat Index: 12°   Visibility: 8mi
Dew Point:   Wind: 2mph
Humidity: 85%   Direction: NA
Pressure: 30.33"   Gusts: NA
Location:  45.68°N, 74.4°W
Report Text: CYMX 202200Z VRB02KT 8SM FEW150 FEW250 M11/M13 A3033 RMK AC1CI1 AC TR CI TR SLP279
Loading
Personal Weather Stations






























Interactive Weather Map New forecast layout! Learn more

10-Day Weather Forecast

Advertisements
Track Severe Weather on mobile